sensor_id;sensor_type;location;lat;lon;timestamp;temperature;humidity
9305;DHT22;4690;52.422;13.486;2023-10-13T00:12:30;13.80;99.90
9305;DHT22;4690;52.422;13.486;2023-10-13T00:14:57;13.80;99.90
9305;DHT22;4690;52.422;13.486;2023-10-13T00:17:29;13.80;99.90
9305;DHT22;4690;52.422;13.486;2023-10-13T00:19:57;13.80;99.90
9305;DHT22;4690;52.422;13.486;2023-10-13T00:22:25;13.70;99.90
9305;DHT22;4690;52.422;13.486;2023-10-13T00:24:53;13.70;99.90
9305;DHT22;4690;52.422;13.486;2023-10-13T00:27:28;13.70;99.90
9305;DHT22;4690;52.422;13.486;2023-10-13T00:30:06;13.70;99.90
9305;DHT22;4690;52.422;13.486;2023-10-13T00:32:53;13.70;99.90
9305;DHT22;4690;52.422;13.486;2023-10-13T00:35:21;13.70;99.90
9305;DHT22;4690;52.422;13.486;2023-10-13T00:37:54;13.80;99.90
9305;DHT22;4690;52.422;13.486;2023-10-13T00:40:25;13.80;99.90
9305;DHT22;4690;52.422;13.486;2023-10-13T00:42:57;13.80;99.90
9305;DHT22;4690;52.422;13.486;2023-10-13T00:46:04;13.80;99.90
9305;DHT22;4690;52.422;13.486;2023-10-13T00:48:30;13.80;99.90
9305;DHT22;4690;52.422;13.486;2023-10-13T00:51:03;13.80;99.90
9305;DHT22;4690;52.422;13.486;2023-10-13T00:53:37;13.80;99.90
9305;DHT22;4690;52.422;13.486;2023-10-13T00:56:13;13.80;99.90
9305;DHT22;4690;52.422;13.486;2023-10-13T00:58:46;13.80;99.90
9305;DHT22;4690;52.422;13.486;2023-10-13T01:01:16;13.80;99.90
9305;DHT22;4690;52.422;13.486;2023-10-13T01:03:51;13.80;99.90
9305;DHT22;4690;52.422;13.486;2023-10-13T01:06:22;13.80;99.90
9305;DHT22;4690;52.422;13.486;2023-10-13T01:08:58;13.80;99.90
9305;DHT22;4690;52.422;13.486;2023-10-13T01:11:25;13.80;99.90
9305;DHT22;4690;52.422;13.486;2023-10-13T01:13:55;13.80;99.90
9305;DHT22;4690;52.422;13.486;2023-10-13T01:16:22;13.90;99.90
9305;DHT22;4690;52.422;13.486;2023-10-13T01:18:52;13.80;99.90
9305;DHT22;4690;52.422;13.486;2023-10-13T01:21:19;13.80;99.90
9305;DHT22;4690;52.422;13.486;2023-10-13T01:23:53;13.80;99.90
9305;DHT22;4690;52.422;13.486;2023-10-13T01:26:19;13.80;99.90
9305;DHT22;4690;52.422;13.486;2023-10-13T01:28:56;13.80;99.90
9305;DHT22;4690;52.422;13.486;2023-10-13T01:31:23;13.90;99.90
9305;DHT22;4690;52.422;13.486;2023-10-13T01:33:56;13.90;99.90
9305;DHT22;4690;52.422;13.486;2023-10-13T01:36:29;13.90;99.90
9305;DHT22;4690;52.422;13.486;2023-10-13T01:39:01;13.90;99.90
9305;DHT22;4690;52.422;13.486;2023-10-13T01:41:27;13.90;99.90
9305;DHT22;4690;52.422;13.486;2023-10-13T01:43:56;13.90;99.90
9305;DHT22;4690;52.422;13.486;2023-10-13T01:46:22;13.90;99.90
9305;DHT22;4690;52.422;13.486;2023-10-13T01:48:48;13.90;99.90
9305;DHT22;4690;52.422;13.486;2023-10-13T01:51:14;13.90;99.90
9305;DHT22;4690;52.422;13.486;2023-10-13T01:53:40;13.90;99.90
9305;DHT22;4690;52.422;13.486;2023-10-13T01:56:07;13.90;99.90
9305;DHT22;4690;52.422;13.486;2023-10-13T01:58:39;13.90;99.90
9305;DHT22;4690;52.422;13.486;2023-10-13T02:01:13;13.90;99.90
9305;DHT22;4690;52.422;13.486;2023-10-13T02:03:38;13.90;99.90
9305;DHT22;4690;52.422;13.486;2023-10-13T02:06:12;14.00;99.90
9305;DHT22;4690;52.422;13.486;2023-10-13T02:08:43;14.00;99.90
9305;DHT22;4690;52.422;13.486;2023-10-13T02:11:09;13.90;99.90
9305;DHT22;4690;52.422;13.486;2023-10-13T02:13:35;14.00;99.90
9305;DHT22;4690;52.422;13.486;2023-10-13T02:16:14;14.00;99.90
9305;DHT22;4690;52.422;13.486;2023-10-13T02:18:44;14.00;99.90
9305;DHT22;4690;52.422;13.486;2023-10-13T02:21:10;14.00;99.90
9305;DHT22;4690;52.422;13.486;2023-10-13T02:23:40;14.00;99.90
9305;DHT22;4690;52.422;13.486;2023-10-13T02:26:11;14.00;99.90
9305;DHT22;4690;52.422;13.486;2023-10-13T02:28:46;14.00;99.90
9305;DHT22;4690;52.422;13.486;2023-10-13T02:31:17;14.00;99.90
9305;DHT22;4690;52.422;13.486;2023-10-13T02:33:45;14.00;99.90
9305;DHT22;4690;52.422;13.486;2023-10-13T02:36:11;14.10;99.90
9305;DHT22;4690;52.422;13.486;2023-10-13T02:38:38;14.00;99.90
9305;DHT22;4690;52.422;13.486;2023-10-13T02:41:11;14.00;99.90
9305;DHT22;4690;52.422;13.486;2023-10-13T02:43:44;14.00;99.90
9305;DHT22;4690;52.422;13.486;2023-10-13T02:46:09;14.10;99.90
9305;DHT22;4690;52.422;13.486;2023-10-13T02:48:35;14.10;99.90
9305;DHT22;4690;52.422;13.486;2023-10-13T02:51:08;14.10;99.90
9305;DHT22;4690;52.422;13.486;2023-10-13T02:53:44;14.10;99.90
9305;DHT22;4690;52.422;13.486;2023-10-13T02:56:14;14.10;99.90
9305;DHT22;4690;52.422;13.486;2023-10-13T02:58:47;14.20;99.90
9305;DHT22;4690;52.422;13.486;2023-10-13T03:01:19;14.10;99.90
9305;DHT22;4690;52.422;13.486;2023-10-13T03:03:48;14.10;99.90
9305;DHT22;4690;52.422;13.486;2023-10-13T03:06:17;14.20;99.90
9305;DHT22;4690;52.422;13.486;2023-10-13T03:08:49;14.20;99.90
9305;DHT22;4690;52.422;13.486;2023-10-13T03:11:17;14.20;99.90
9305;DHT22;4690;52.422;13.486;2023-10-13T03:13:47;14.10;99.90
9305;DHT22;4690;52.422;13.486;2023-10-13T03:16:16;14.20;99.90
9305;DHT22;4690;52.422;13.486;2023-10-13T03:18:43;14.30;99.90
9305;DHT22;4690;52.422;13.486;2023-10-13T03:21:23;14.20;99.90
9305;DHT22;4690;52.422;13.486;2023-10-13T03:23:58;14.30;99.90
9305;DHT22;4690;52.422;13.486;2023-10-13T03:26:33;14.30;99.90
9305;DHT22;4690;52.422;13.486;2023-10-13T03:29:03;14.30;99.90
9305;DHT22;4690;52.422;13.486;2023-10-13T03:31:32;14.30;99.90
9305;DHT22;4690;52.422;13.486;2023-10-13T03:34:04;14.30;99.90
9305;DHT22;4690;52.422;13.486;2023-10-13T03:36:35;14.40;99.90
9305;DHT22;4690;52.422;13.486;2023-10-13T03:39:20;14.30;99.90
9305;DHT22;4690;52.422;13.486;2023-10-13T03:41:52;14.30;99.90
9305;DHT22;4690;52.422;13.486;2023-10-13T03:44:19;14.30;99.90
9305;DHT22;4690;52.422;13.486;2023-10-13T03:46:46;14.40;99.90
9305;DHT22;4690;52.422;13.486;2023-10-13T03:49:15;14.40;99.90
9305;DHT22;4690;52.422;13.486;2023-10-13T03:51:49;14.50;99.90
9305;DHT22;4690;52.422;13.486;2023-10-13T03:54:15;14.50;99.90
9305;DHT22;4690;52.422;13.486;2023-10-13T03:56:42;14.50;99.90
9305;DHT22;4690;52.422;13.486;2023-10-13T03:59:12;14.50;99.90
9305;DHT22;4690;52.422;13.486;2023-10-13T04:01:41;14.50;99.90
9305;DHT22;4690;52.422;13.486;2023-10-13T04:04:19;14.50;99.90
9305;DHT22;4690;52.422;13.486;2023-10-13T04:06:57;14.50;99.90
9305;DHT22;4690;52.422;13.486;2023-10-13T04:09:36;14.50;99.90
9305;DHT22;4690;52.422;13.486;2023-10-13T04:12:06;14.60;99.90
9305;DHT22;4690;52.422;13.486;2023-10-13T04:15:11;14.50;99.90
9305;DHT22;4690;52.422;13.486;2023-10-13T04:17:43;14.60;99.90
9305;DHT22;4690;52.422;13.486;2023-10-13T04:20:14;14.60;99.90
9305;DHT22;4690;52.422;13.486;2023-10-13T04:22:52;14.60;99.90
9305;DHT22;4690;52.422;13.486;2023-10-13T04:25:25;14.60;99.90
9305;DHT22;4690;52.422;13.486;2023-10-13T04:28:15;14.60;99.90
9305;DHT22;4690;52.422;13.486;2023-10-13T04:30:59;14.60;99.90
9305;DHT22;4690;52.422;13.486;2023-10-13T04:33:37;14.60;99.90
9305;DHT22;4690;52.422;13.486;2023-10-13T04:36:17;14.70;99.90
9305;DHT22;4690;52.422;13.486;2023-10-13T04:41:33;14.70;99.90
9305;DHT22;4690;52.422;13.486;2023-10-13T04:44:16;14.70;99.90
9305;DHT22;4690;52.422;13.486;2023-10-13T04:46:52;14.70;99.90
9305;DHT22;4690;52.422;13.486;2023-10-13T04:49:23;14.70;99.90
9305;DHT22;4690;52.422;13.486;2023-10-13T04:52:02;14.70;99.90
9305;DHT22;4690;52.422;13.486;2023-10-13T04:54:32;14.70;99.90
9305;DHT22;4690;52.422;13.486;2023-10-13T04:57:21;14.70;99.90
9305;DHT22;4690;52.422;13.486;2023-10-13T04:59:47;14.80;99.90
9305;DHT22;4690;52.422;13.486;2023-10-13T05:02:29;14.80;99.90
9305;DHT22;4690;52.422;13.486;2023-10-13T05:05:07;14.80;99.90
9305;DHT22;4690;52.422;13.486;2023-10-13T05:07:42;14.80;99.90
9305;DHT22;4690;52.422;13.486;2023-10-13T05:10:27;14.80;99.90
9305;DHT22;4690;52.422;13.486;2023-10-13T05:13:12;14.80;99.90
9305;DHT22;4690;52.422;13.486;2023-10-13T05:15:56;14.90;99.90
9305;DHT22;4690;52.422;13.486;2023-10-13T05:18:41;14.90;99.90
9305;DHT22;4690;52.422;13.486;2023-10-13T05:21:25;14.90;99.90
9305;DHT22;4690;52.422;13.486;2023-10-13T05:24:09;14.90;99.90
9305;DHT22;4690;52.422;13.486;2023-10-13T05:26:54;14.90;99.90
9305;DHT22;4690;52.422;13.486;2023-10-13T05:29:43;14.90;99.90
9305;DHT22;4690;52.422;13.486;2023-10-13T05:32:29;15.00;99.90
9305;DHT22;4690;52.422;13.486;2023-10-13T05:35:14;15.00;99.90
9305;DHT22;4690;52.422;13.486;2023-10-13T05:38:00;15.10;99.90
9305;DHT22;4690;52.422;13.486;2023-10-13T05:41:04;15.10;99.90
9305;DHT22;4690;52.422;13.486;2023-10-13T05:43:50;15.10;99.90
9305;DHT22;4690;52.422;13.486;2023-10-13T05:46:35;15.10;99.90
9305;DHT22;4690;52.422;13.486;2023-10-13T05:49:14;15.20;99.90
9305;DHT22;4690;52.422;13.486;2023-10-13T05:51:44;15.20;99.90
9305;DHT22;4690;52.422;13.486;2023-10-13T05:54:23;15.20;99.90
9305;DHT22;4690;52.422;13.486;2023-10-13T05:57:08;15.20;99.90
9305;DHT22;4690;52.422;13.486;2023-10-13T06:00:06;15.30;99.90
9305;DHT22;4690;52.422;13.486;2023-10-13T06:02:51;15.30;99.90
9305;DHT22;4690;52.422;13.486;2023-10-13T06:05:35;15.30;99.90
9305;DHT22;4690;52.422;13.486;2023-10-13T06:08:19;15.30;99.90
9305;DHT22;4690;52.422;13.486;2023-10-13T06:11:04;15.40;99.90
9305;DHT22;4690;52.422;13.486;2023-10-13T06:13:48;15.40;99.90
9305;DHT22;4690;52.422;13.486;2023-10-13T06:16:33;15.40;99.90
9305;DHT22;4690;52.422;13.486;2023-10-13T06:19:17;15.50;99.90
9305;DHT22;4690;52.422;13.486;2023-10-13T06:22:02;15.50;99.90
9305;DHT22;4690;52.422;13.486;2023-10-13T06:24:46;15.60;99.90
9305;DHT22;4690;52.422;13.486;2023-10-13T06:27:31;15.70;99.90
9305;DHT22;4690;52.422;13.486;2023-10-13T06:30:15;15.80;99.90
9305;DHT22;4690;52.422;13.486;2023-10-13T06:32:43;15.90;99.90
9305;DHT22;4690;52.422;13.486;2023-10-13T06:35:11;16.00;99.90
9305;DHT22;4690;52.422;13.486;2023-10-13T06:37:52;15.90;99.90
9305;DHT22;4690;52.422;13.486;2023-10-13T06:40:19;15.90;99.90
9305;DHT22;4690;52.422;13.486;2023-10-13T06:42:50;15.90;99.90
9305;DHT22;4690;52.422;13.486;2023-10-13T06:45:18;15.90;99.90
9305;DHT22;4690;52.422;13.486;2023-10-13T06:47:46;15.90;99.90
9305;DHT22;4690;52.422;13.486;2023-10-13T06:50:14;16.00;99.90
9305;DHT22;4690;52.422;13.486;2023-10-13T06:52:44;16.10;99.90
9305;DHT22;4690;52.422;13.486;2023-10-13T06:55:15;16.10;99.90
9305;DHT22;4690;52.422;13.486;2023-10-13T06:57:54;16.20;99.90
9305;DHT22;4690;52.422;13.486;2023-10-13T07:00:26;16.20;99.90
9305;DHT22;4690;52.422;13.486;2023-10-13T07:02:59;16.30;99.90
9305;DHT22;4690;52.422;13.486;2023-10-13T07:05:41;16.40;99.90
9305;DHT22;4690;52.422;13.486;2023-10-13T07:08:10;16.40;99.90
9305;DHT22;4690;52.422;13.486;2023-10-13T07:10:52;16.40;99.90
9305;DHT22;4690;52.422;13.486;2023-10-13T07:13:43;16.50;99.90
9305;DHT22;4690;52.422;13.486;2023-10-13T07:16:15;16.60;99.90
9305;DHT22;4690;52.422;13.486;2023-10-13T07:18:41;16.70;99.90
9305;DHT22;4690;52.422;13.486;2023-10-13T07:21:15;16.80;99.90
9305;DHT22;4690;52.422;13.486;2023-10-13T07:23:41;16.80;99.90
9305;DHT22;4690;52.422;13.486;2023-10-13T07:26:15;16.80;99.90
9305;DHT22;4690;52.422;13.486;2023-10-13T07:28:40;16.80;99.90
9305;DHT22;4690;52.422;13.486;2023-10-13T07:31:13;16.90;99.90
9305;DHT22;4690;52.422;13.486;2023-10-13T07:33:40;16.90;99.90
9305;DHT22;4690;52.422;13.486;2023-10-13T07:36:08;16.90;99.90
9305;DHT22;4690;52.422;13.486;2023-10-13T07:38:47;17.00;99.90
9305;DHT22;4690;52.422;13.486;2023-10-13T07:41:35;17.00;99.90
9305;DHT22;4690;52.422;13.486;2023-10-13T07:44:02;17.10;99.90
9305;DHT22;4690;52.422;13.486;2023-10-13T07:46:30;17.10;99.90
9305;DHT22;4690;52.422;13.486;2023-10-13T07:48:58;17.20;99.90
9305;DHT22;4690;52.422;13.486;2023-10-13T07:51:39;17.20;99.90
9305;DHT22;4690;52.422;13.486;2023-10-13T07:54:14;17.20;99.90
9305;DHT22;4690;52.422;13.486;2023-10-13T07:56:47;17.30;99.90
9305;DHT22;4690;52.422;13.486;2023-10-13T07:59:13;17.30;99.90
9305;DHT22;4690;52.422;13.486;2023-10-13T08:01:42;17.30;99.90
9305;DHT22;4690;52.422;13.486;2023-10-13T08:04:09;17.40;99.90
9305;DHT22;4690;52.422;13.486;2023-10-13T08:06:40;17.50;99.90
9305;DHT22;4690;52.422;13.486;2023-10-13T08:09:07;17.50;99.90
9305;DHT22;4690;52.422;13.486;2023-10-13T08:11:34;17.60;99.90
9305;DHT22;4690;52.422;13.486;2023-10-13T08:14:03;17.60;99.90
9305;DHT22;4690;52.422;13.486;2023-10-13T08:16:49;17.60;99.90
9305;DHT22;4690;52.422;13.486;2023-10-13T08:19:30;17.70;99.90
9305;DHT22;4690;52.422;13.486;2023-10-13T08:22:11;17.70;99.90
9305;DHT22;4690;52.422;13.486;2023-10-13T08:24:44;17.80;99.90
9305;DHT22;4690;52.422;13.486;2023-10-13T08:27:10;17.80;99.90
9305;DHT22;4690;52.422;13.486;2023-10-13T08:29:54;17.90;99.90
9305;DHT22;4690;52.422;13.486;2023-10-13T08:32:21;18.00;99.90
9305;DHT22;4690;52.422;13.486;2023-10-13T08:34:56;18.00;99.90
9305;DHT22;4690;52.422;13.486;2023-10-13T08:37:24;18.10;99.90
9305;DHT22;4690;52.422;13.486;2023-10-13T08:39:59;18.20;99.90
9305;DHT22;4690;52.422;13.486;2023-10-13T08:42:36;18.30;99.90
9305;DHT22;4690;52.422;13.486;2023-10-13T08:45:11;18.30;99.90
9305;DHT22;4690;52.422;13.486;2023-10-13T08:47:55;18.20;99.90
9305;DHT22;4690;52.422;13.486;2023-10-13T08:50:47;18.30;99.90
9305;DHT22;4690;52.422;13.486;2023-10-13T08:53:28;18.40;99.90
9305;DHT22;4690;52.422;13.486;2023-10-13T08:56:12;18.40;99.90
9305;DHT22;4690;52.422;13.486;2023-10-13T08:58:59;18.40;99.90
9305;DHT22;4690;52.422;13.486;2023-10-13T09:01:33;18.50;99.90
9305;DHT22;4690;52.422;13.486;2023-10-13T09:04:02;18.50;99.90
9305;DHT22;4690;52.422;13.486;2023-10-13T09:06:48;18.50;99.90
9305;DHT22;4690;52.422;13.486;2023-10-13T09:12:26;18.60;99.90
9305;DHT22;4690;52.422;13.486;2023-10-13T09:15:07;18.60;99.90
9305;DHT22;4690;52.422;13.486;2023-10-13T09:17:47;18.60;99.90
9305;DHT22;4690;52.422;13.486;2023-10-13T09:20:30;18.60;99.90
9305;DHT22;4690;52.422;13.486;2023-10-13T09:23:12;18.60;99.90
9305;DHT22;4690;52.422;13.486;2023-10-13T09:25:49;18.70;99.90
9305;DHT22;4690;52.422;13.486;2023-10-13T09:28:20;18.70;99.90
9305;DHT22;4690;52.422;13.486;2023-10-13T09:30:54;18.70;99.90
9305;DHT22;4690;52.422;13.486;2023-10-13T09:33:28;18.70;99.90
9305;DHT22;4690;52.422;13.486;2023-10-13T09:36:16;18.70;99.90
9305;DHT22;4690;52.422;13.486;2023-10-13T09:38:43;18.80;99.90
9305;DHT22;4690;52.422;13.486;2023-10-13T09:41:37;18.80;99.90
9305;DHT22;4690;52.422;13.486;2023-10-13T09:44:05;18.80;99.90
9305;DHT22;4690;52.422;13.486;2023-10-13T09:46:37;18.80;99.90
9305;DHT22;4690;52.422;13.486;2023-10-13T09:49:13;18.70;99.90
9305;DHT22;4690;52.422;13.486;2023-10-13T09:51:41;18.70;99.90
9305;DHT22;4690;52.422;13.486;2023-10-13T09:54:20;18.70;99.90
9305;DHT22;4690;52.422;13.486;2023-10-13T09:57:12;18.70;99.90
9305;DHT22;4690;52.422;13.486;2023-10-13T09:59:50;18.60;99.90
9305;DHT22;4690;52.422;13.486;2023-10-13T10:02:22;18.70;99.90
9305;DHT22;4690;52.422;13.486;2023-10-13T10:04:55;18.70;99.90
9305;DHT22;4690;52.422;13.486;2023-10-13T10:07:36;18.70;99.90
9305;DHT22;4690;52.422;13.486;2023-10-13T10:10:05;18.70;99.90
9305;DHT22;4690;52.422;13.486;2023-10-13T10:15:29;18.80;99.90
9305;DHT22;4690;52.422;13.486;2023-10-13T10:18:00;19.00;99.90
9305;DHT22;4690;52.422;13.486;2023-10-13T10:20:34;19.00;99.90
9305;DHT22;4690;52.422;13.486;2023-10-13T10:26:14;19.10;99.90
9305;DHT22;4690;52.422;13.486;2023-10-13T10:28:45;19.20;99.90
9305;DHT22;4690;52.422;13.486;2023-10-13T10:31:12;19.10;99.90
9305;DHT22;4690;52.422;13.486;2023-10-13T10:33:45;19.20;99.90
9305;DHT22;4690;52.422;13.486;2023-10-13T10:36:28;19.20;99.90
9305;DHT22;4690;52.422;13.486;2023-10-13T10:38:57;19.20;99.90
9305;DHT22;4690;52.422;13.486;2023-10-13T10:41:27;19.20;99.90
9305;DHT22;4690;52.422;13.486;2023-10-13T10:44:12;19.10;99.90
9305;DHT22;4690;52.422;13.486;2023-10-13T10:46:42;18.80;99.90
9305;DHT22;4690;52.422;13.486;2023-10-13T10:49:20;18.80;99.90
9305;DHT22;4690;52.422;13.486;2023-10-13T10:51:59;18.70;99.90
9305;DHT22;4690;52.422;13.486;2023-10-13T10:54:33;18.70;99.90
9305;DHT22;4690;52.422;13.486;2023-10-13T10:56:59;18.70;99.90
9305;DHT22;4690;52.422;13.486;2023-10-13T10:59:44;18.70;99.90
9305;DHT22;4690;52.422;13.486;2023-10-13T11:02:10;18.70;99.90
9305;DHT22;4690;52.422;13.486;2023-10-13T11:04:41;18.70;99.90
9305;DHT22;4690;52.422;13.486;2023-10-13T11:07:23;18.70;99.90
9305;DHT22;4690;52.422;13.486;2023-10-13T11:09:49;18.70;99.90
9305;DHT22;4690;52.422;13.486;2023-10-13T11:12:18;18.80;99.90
9305;DHT22;4690;52.422;13.486;2023-10-13T11:14:47;18.90;99.90
9305;DHT22;4690;52.422;13.486;2023-10-13T11:17:23;19.00;99.90
9305;DHT22;4690;52.422;13.486;2023-10-13T11:20:08;19.00;99.90
9305;DHT22;4690;52.422;13.486;2023-10-13T11:22:51;19.00;99.90
9305;DHT22;4690;52.422;13.486;2023-10-13T11:25:25;18.90;99.90
9305;DHT22;4690;52.422;13.486;2023-10-13T11:27:56;18.90;99.90
9305;DHT22;4690;52.422;13.486;2023-10-13T11:30:31;19.00;99.90
9305;DHT22;4690;52.422;13.486;2023-10-13T11:33:05;19.00;99.90
9305;DHT22;4690;52.422;13.486;2023-10-13T11:35:39;18.90;99.90
9305;DHT22;4690;52.422;13.486;2023-10-13T11:38:17;18.90;99.90
9305;DHT22;4690;52.422;13.486;2023-10-13T11:41:03;18.90;99.90
9305;DHT22;4690;52.422;13.486;2023-10-13T11:43:50;18.90;99.90
9305;DHT22;4690;52.422;13.486;2023-10-13T11:46:21;18.90;99.90
9305;DHT22;4690;52.422;13.486;2023-10-13T11:49:04;18.90;99.90
9305;DHT22;4690;52.422;13.486;2023-10-13T11:51:40;18.90;99.90
9305;DHT22;4690;52.422;13.486;2023-10-13T11:54:10;19.00;99.90
9305;DHT22;4690;52.422;13.486;2023-10-13T11:56:43;19.00;99.90
9305;DHT22;4690;52.422;13.486;2023-10-13T11:59:10;19.10;99.90
9305;DHT22;4690;52.422;13.486;2023-10-13T12:01:50;19.30;99.90
9305;DHT22;4690;52.422;13.486;2023-10-13T12:04:36;19.50;99.90
9305;DHT22;4690;52.422;13.486;2023-10-13T12:07:09;19.60;99.90
9305;DHT22;4690;52.422;13.486;2023-10-13T12:09:52;19.60;99.90
9305;DHT22;4690;52.422;13.486;2023-10-13T12:12:23;19.60;99.90
9305;DHT22;4690;52.422;13.486;2023-10-13T12:14:55;19.70;99.90
9305;DHT22;4690;52.422;13.486;2023-10-13T12:17:23;19.80;99.90
9305;DHT22;4690;52.422;13.486;2023-10-13T12:20:04;19.90;99.90
9305;DHT22;4690;52.422;13.486;2023-10-13T12:22:34;19.90;99.90
9305;DHT22;4690;52.422;13.486;2023-10-13T12:25:09;19.90;99.90
9305;DHT22;4690;52.422;13.486;2023-10-13T12:27:51;20.00;99.90
9305;DHT22;4690;52.422;13.486;2023-10-13T12:30:22;20.10;99.90
9305;DHT22;4690;52.422;13.486;2023-10-13T12:33:09;20.20;99.90
9305;DHT22;4690;52.422;13.486;2023-10-13T12:35:36;20.30;99.90
9305;DHT22;4690;52.422;13.486;2023-10-13T12:38:29;20.40;99.90
9305;DHT22;4690;52.422;13.486;2023-10-13T12:41:14;20.40;99.90
9305;DHT22;4690;52.422;13.486;2023-10-13T12:44:00;20.40;99.90
9305;DHT22;4690;52.422;13.486;2023-10-13T12:46:44;20.50;99.90
9305;DHT22;4690;52.422;13.486;2023-10-13T12:49:29;20.50;99.90
9305;DHT22;4690;52.422;13.486;2023-10-13T12:52:13;20.60;99.90
9305;DHT22;4690;52.422;13.486;2023-10-13T12:54:48;20.60;99.90
9305;DHT22;4690;52.422;13.486;2023-10-13T12:57:26;20.60;99.90
9305;DHT22;4690;52.422;13.486;2023-10-13T12:59:53;20.70;99.90
9305;DHT22;4690;52.422;13.486;2023-10-13T13:02:21;20.70;99.90
9305;DHT22;4690;52.422;13.486;2023-10-13T13:04:47;20.70;99.90
9305;DHT22;4690;52.422;13.486;2023-10-13T13:07:27;20.80;99.90
9305;DHT22;4690;52.422;13.486;2023-10-13T13:09:56;20.80;99.90
9305;DHT22;4690;52.422;13.486;2023-10-13T13:12:24;20.80;99.90
9305;DHT22;4690;52.422;13.486;2023-10-13T13:14:50;20.90;99.90
9305;DHT22;4690;52.422;13.486;2023-10-13T13:17:23;21.00;99.90
9305;DHT22;4690;52.422;13.486;2023-10-13T13:19:49;21.00;99.90
9305;DHT22;4690;52.422;13.486;2023-10-13T13:22:15;21.10;99.90
9305;DHT22;4690;52.422;13.486;2023-10-13T13:24:43;21.10;99.90
9305;DHT22;4690;52.422;13.486;2023-10-13T13:27:15;21.20;99.90
9305;DHT22;4690;52.422;13.486;2023-10-13T13:29:45;21.20;99.90
9305;DHT22;4690;52.422;13.486;2023-10-13T13:32:12;21.30;99.90
9305;DHT22;4690;52.422;13.486;2023-10-13T13:34:53;21.50;99.90
9305;DHT22;4690;52.422;13.486;2023-10-13T13:37:39;21.50;99.90
9305;DHT22;4690;52.422;13.486;2023-10-13T13:40:08;21.60;99.90
9305;DHT22;4690;52.422;13.486;2023-10-13T13:42:44;21.60;99.90
9305;DHT22;4690;52.422;13.486;2023-10-13T13:47:48;21.50;99.90
9305;DHT22;4690;52.422;13.486;2023-10-13T13:50:20;21.60;99.90
9305;DHT22;4690;52.422;13.486;2023-10-13T13:52:54;21.50;99.90
9305;DHT22;4690;52.422;13.486;2023-10-13T13:55:23;21.50;99.90
9305;DHT22;4690;52.422;13.486;2023-10-13T13:57:51;21.50;99.90
9305;DHT22;4690;52.422;13.486;2023-10-13T14:00:18;21.60;99.90
9305;DHT22;4690;52.422;13.486;2023-10-13T14:03:07;21.50;99.90
9305;DHT22;4690;52.422;13.486;2023-10-13T14:05:57;21.80;99.90
9305;DHT22;4690;52.422;13.486;2023-10-13T14:08:24;22.10;99.90
9305;DHT22;4690;52.422;13.486;2023-10-13T14:10:51;22.20;99.90
9305;DHT22;4690;52.422;13.486;2023-10-13T14:13:36;22.30;99.90
9305;DHT22;4690;52.422;13.486;2023-10-13T14:16:15;22.30;99.90
9305;DHT22;4690;52.422;13.486;2023-10-13T14:18:49;22.40;99.90
9305;DHT22;4690;52.422;13.486;2023-10-13T14:21:16;22.40;99.90
9305;DHT22;4690;52.422;13.486;2023-10-13T14:23:45;22.40;99.90
9305;DHT22;4690;52.422;13.486;2023-10-13T14:26:12;22.30;99.90
9305;DHT22;4690;52.422;13.486;2023-10-13T14:28:39;22.40;99.90
9305;DHT22;4690;52.422;13.486;2023-10-13T14:31:18;22.40;99.90
9305;DHT22;4690;52.422;13.486;2023-10-13T14:33:45;22.40;99.90
9305;DHT22;4690;52.422;13.486;2023-10-13T14:36:13;22.40;99.90
9305;DHT22;4690;52.422;13.486;2023-10-13T14:38:40;22.40;99.90
9305;DHT22;4690;52.422;13.486;2023-10-13T14:41:09;22.40;99.90
9305;DHT22;4690;52.422;13.486;2023-10-13T14:43:35;22.50;99.90
9305;DHT22;4690;52.422;13.486;2023-10-13T14:46:01;22.50;99.90
9305;DHT22;4690;52.422;13.486;2023-10-13T14:48:26;22.50;99.90
9305;DHT22;4690;52.422;13.486;2023-10-13T14:50:52;22.40;99.90
9305;DHT22;4690;52.422;13.486;2023-10-13T14:53:18;22.30;99.90
9305;DHT22;4690;52.422;13.486;2023-10-13T14:55:47;22.20;99.90
9305;DHT22;4690;52.422;13.486;2023-10-13T14:58:13;22.10;99.90
9305;DHT22;4690;52.422;13.486;2023-10-13T15:00:42;22.00;99.90
9305;DHT22;4690;52.422;13.486;2023-10-13T15:03:11;22.00;99.90
9305;DHT22;4690;52.422;13.486;2023-10-13T15:05:40;22.00;99.90
9305;DHT22;4690;52.422;13.486;2023-10-13T15:08:09;22.00;99.90
9305;DHT22;4690;52.422;13.486;2023-10-13T15:10:35;21.90;99.90
9305;DHT22;4690;52.422;13.486;2023-10-13T15:13:03;21.90;99.90
9305;DHT22;4690;52.422;13.486;2023-10-13T15:15:30;21.90;99.90
9305;DHT22;4690;52.422;13.486;2023-10-13T15:17:58;21.90;99.90
9305;DHT22;4690;52.422;13.486;2023-10-13T15:20:24;21.90;99.90
9305;DHT22;4690;52.422;13.486;2023-10-13T15:22:49;21.90;99.90
9305;DHT22;4690;52.422;13.486;2023-10-13T15:25:19;21.90;99.90
9305;DHT22;4690;52.422;13.486;2023-10-13T15:27:57;21.80;99.90
9305;DHT22;4690;52.422;13.486;2023-10-13T15:30:27;21.80;99.90
9305;DHT22;4690;52.422;13.486;2023-10-13T15:33:08;21.70;99.90
9305;DHT22;4690;52.422;13.486;2023-10-13T15:35:34;21.70;99.90
9305;DHT22;4690;52.422;13.486;2023-10-13T15:37:59;21.60;99.90
9305;DHT22;4690;52.422;13.486;2023-10-13T15:40:27;21.50;99.90
9305;DHT22;4690;52.422;13.486;2023-10-13T15:42:53;21.50;99.90
9305;DHT22;4690;52.422;13.486;2023-10-13T15:45:25;21.50;99.90
9305;DHT22;4690;52.422;13.486;2023-10-13T15:47:58;21.50;99.90
9305;DHT22;4690;52.422;13.486;2023-10-13T15:50:24;21.40;99.90
9305;DHT22;4690;52.422;13.486;2023-10-13T15:52:49;21.40;99.90
9305;DHT22;4690;52.422;13.486;2023-10-13T15:55:16;21.50;99.90
9305;DHT22;4690;52.422;13.486;2023-10-13T15:57:43;21.40;99.90
9305;DHT22;4690;52.422;13.486;2023-10-13T16:00:10;21.50;99.90
9305;DHT22;4690;52.422;13.486;2023-10-13T16:02:53;21.50;99.90
9305;DHT22;4690;52.422;13.486;2023-10-13T16:05:34;21.50;99.90
9305;DHT22;4690;52.422;13.486;2023-10-13T16:08:00;21.50;99.90
9305;DHT22;4690;52.422;13.486;2023-10-13T16:10:27;21.40;99.90
9305;DHT22;4690;52.422;13.486;2023-10-13T16:12:53;21.40;99.90
9305;DHT22;4690;52.422;13.486;2023-10-13T16:15:19;21.40;99.90
9305;DHT22;4690;52.422;13.486;2023-10-13T16:17:47;21.50;99.90
9305;DHT22;4690;52.422;13.486;2023-10-13T16:20:13;21.40;99.90
9305;DHT22;4690;52.422;13.486;2023-10-13T16:22:43;21.30;99.90
9305;DHT22;4690;52.422;13.486;2023-10-13T16:25:10;21.30;99.90
9305;DHT22;4690;52.422;13.486;2023-10-13T16:27:40;21.30;99.90
9305;DHT22;4690;52.422;13.486;2023-10-13T16:30:12;21.30;99.90
9305;DHT22;4690;52.422;13.486;2023-10-13T16:32:43;21.20;99.90
9305;DHT22;4690;52.422;13.486;2023-10-13T16:35:16;21.30;99.90
9305;DHT22;4690;52.422;13.486;2023-10-13T16:37:47;21.40;99.90
9305;DHT22;4690;52.422;13.486;2023-10-13T16:40:20;21.30;99.90
9305;DHT22;4690;52.422;13.486;2023-10-13T16:42:47;21.30;99.90
9305;DHT22;4690;52.422;13.486;2023-10-13T16:45:14;21.30;99.90
9305;DHT22;4690;52.422;13.486;2023-10-13T16:47:42;21.30;99.90
9305;DHT22;4690;52.422;13.486;2023-10-13T16:50:12;21.20;99.90
9305;DHT22;4690;52.422;13.486;2023-10-13T16:52:40;21.20;99.90